Terminal Aerodrome Forecast
Issued by NWS

Home | Current Version | Previous Version | Text Only | Print | Product List | Glossary On
Versions: 1 2 3 4 5 6 7 8 9 10 11 12 13 14 15
000
FTPQ31 PGUM 250552
TAFGUM
TAF

TAF
PGWT 250552Z 2506/2606 09011G18KT P6SM VCSH FEW018 SCT050 BKN140
      TEMPO 2506/2509 -SHRA SCT016 BKN030
     FM250900 09011KT P6SM VCSH FEW018 SCT050 SCT140=

USA.gov is the U.S. government's official web portal to all federal, state and local government web resources and services.